createdAt,value
2023-01-19T00:00:06.402Z,17.55
2023-01-19T00:02:29.211Z,14.57
2023-01-19T00:04:51.803Z,16.05
2023-01-19T00:07:15.389Z,16.30
2023-01-19T00:09:38.501Z,15.53
2023-01-19T00:12:01.160Z,14.38
2023-01-19T00:14:23.816Z,11.48
2023-01-19T00:16:46.404Z,12.25
2023-01-19T00:19:09.135Z,13.32
2023-01-19T00:21:31.767Z,15.10
2023-01-19T00:23:54.403Z,14.80
2023-01-19T00:26:17.467Z,15.60
2023-01-19T00:28:40.100Z,14.05
2023-01-19T00:31:02.812Z,13.52
2023-01-19T00:33:25.438Z,12.93
2023-01-19T00:35:52.831Z,16.20
2023-01-19T00:38:15.612Z,14.55
2023-01-19T00:40:38.460Z,15.27
2023-01-19T00:43:01.825Z,18.83
2023-01-19T00:45:24.890Z,18.60
2023-01-19T00:47:50.276Z,17.25
2023-01-19T00:50:13.750Z,17.55
2023-01-19T00:52:36.367Z,18.85
2023-01-19T00:54:58.973Z,20.10
2023-01-19T00:57:21.590Z,19.30
2023-01-19T00:59:44.216Z,19.98
2023-01-19T01:02:07.232Z,19.63
2023-01-19T01:04:30.264Z,21.17
2023-01-19T01:06:52.859Z,16.80
2023-01-19T01:09:15.757Z,21.60
2023-01-19T01:11:40.010Z,21.15
2023-01-19T01:14:02.494Z,17.98
2023-01-19T01:16:26.199Z,16.55
2023-01-19T01:18:48.839Z,17.52
2023-01-19T01:21:13.024Z,16.63
2023-01-19T01:23:35.610Z,18.17
2023-01-19T01:25:58.232Z,13.00
2023-01-19T01:28:21.117Z,15.73
2023-01-19T01:30:44.133Z,15.88
2023-01-19T01:33:09.494Z,15.43
2023-01-19T01:35:33.996Z,13.93
2023-01-19T01:37:59.090Z,11.90
2023-01-19T01:40:21.757Z,9.82
2023-01-19T01:42:45.511Z,8.55
2023-01-19T01:45:24.682Z,11.00
2023-01-19T01:47:49.991Z,12.63
2023-01-19T01:50:21.202Z,14.65
2023-01-19T01:53:07.116Z,11.68
2023-01-19T01:55:32.976Z,11.02
2023-01-19T01:58:01.302Z,9.33
2023-01-19T02:00:27.341Z,8.85
2023-01-19T02:02:51.785Z,6.95
2023-01-19T02:05:34.026Z,6.20
2023-01-19T02:08:34.393Z,6.13
2023-01-19T02:11:16.644Z,4.83
2023-01-19T02:13:43.993Z,3.72
2023-01-19T02:16:08.677Z,3.13
2023-01-19T02:18:32.575Z,3.13
2023-01-19T02:21:18.947Z,2.88
2023-01-19T02:23:58.969Z,2.30
2023-01-19T02:26:25.066Z,2.72
2023-01-19T02:28:55.045Z,1.73
2023-01-19T02:31:18.706Z,1.55
2023-01-19T02:33:41.795Z,2.00
2023-01-19T02:36:08.181Z,3.83
2023-01-19T02:38:32.198Z,2.15
2023-01-19T02:41:01.082Z,1.42
2023-01-19T02:43:25.098Z,2.42
2023-01-19T02:45:48.334Z,1.88
2023-01-19T02:48:11.414Z,1.47
2023-01-19T02:50:49.875Z,2.88
2023-01-19T02:53:24.382Z,2.13
2023-01-19T02:55:56.774Z,2.45
2023-01-19T02:58:53.715Z,1.70
2023-01-19T03:01:30.373Z,2.03
2023-01-19T03:04:04.602Z,2.05
2023-01-19T03:06:51.717Z,2.00
2023-01-19T03:09:38.529Z,2.10
2023-01-19T03:12:31.843Z,3.30
2023-01-19T03:15:01.757Z,2.50
2023-01-19T03:17:25.713Z,2.08
2023-01-19T03:19:50.564Z,1.27
2023-01-19T03:22:23.565Z,1.23
2023-01-19T03:24:48.175Z,1.70
2023-01-19T03:27:18.016Z,1.70
2023-01-19T03:29:45.705Z,1.20
2023-01-19T03:32:13.942Z,1.30
2023-01-19T03:34:39.268Z,1.33
2023-01-19T03:37:05.164Z,2.72
2023-01-19T03:39:28.960Z,1.60
2023-01-19T03:41:58.670Z,1.40
2023-01-19T03:44:23.584Z,1.17
2023-01-19T03:46:48.056Z,1.13
2023-01-19T03:49:11.521Z,1.05
2023-01-19T03:51:40.393Z,1.80
2023-01-19T03:54:05.239Z,1.20
2023-01-19T03:56:27.884Z,1.10
2023-01-19T03:58:51.386Z,1.55
2023-01-19T04:01:15.211Z,1.42
2023-01-19T04:03:38.016Z,1.10
2023-01-19T04:06:01.766Z,2.03
2023-01-19T04:08:24.415Z,1.92
2023-01-19T04:10:47.068Z,2.58
2023-01-19T04:13:09.814Z,4.28
2023-01-19T04:15:32.562Z,5.20
2023-01-19T04:17:58.330Z,4.57
2023-01-19T04:20:21.807Z,4.40
2023-01-19T04:22:44.672Z,5.88
2023-01-19T04:25:08.135Z,6.47
2023-01-19T04:27:30.759Z,4.70
2023-01-19T04:29:53.470Z,5.80
2023-01-19T04:32:16.417Z,5.95
2023-01-19T04:34:38.933Z,6.65
2023-01-19T04:37:01.620Z,5.20
2023-01-19T04:39:24.275Z,4.70
2023-01-19T04:41:47.112Z,5.13
2023-01-19T04:44:09.767Z,5.20
2023-01-19T04:46:32.479Z,4.50
2023-01-19T04:48:55.001Z,3.78
2023-01-19T04:51:17.704Z,3.30
2023-01-19T04:53:40.461Z,2.70
2023-01-19T04:56:03.185Z,2.83
2023-01-19T04:58:25.871Z,2.13
2023-01-19T05:00:48.691Z,2.80
2023-01-19T05:03:11.441Z,4.10
2023-01-19T05:05:34.275Z,2.97
2023-01-19T05:07:57.614Z,3.75
2023-01-19T05:10:20.550Z,5.43
2023-01-19T05:12:43.170Z,3.45
2023-01-19T05:15:07.997Z,4.20
2023-01-19T05:17:31.004Z,4.40
2023-01-19T05:19:53.572Z,4.68
2023-01-19T05:22:16.685Z,4.28
2023-01-19T05:24:39.375Z,4.35
2023-01-19T05:27:01.984Z,4.03
2023-01-19T05:29:24.725Z,4.43
2023-01-19T05:31:47.710Z,3.72
2023-01-19T05:34:12.192Z,3.50
2023-01-19T05:36:34.758Z,3.00
2023-01-19T05:38:57.736Z,2.83
2023-01-19T05:41:20.717Z,2.15
2023-01-19T05:43:43.483Z,3.40
2023-01-19T05:46:06.328Z,2.80
2023-01-19T05:48:28.937Z,3.05
2023-01-19T05:50:51.762Z,3.97
2023-01-19T05:53:14.449Z,4.78
2023-01-19T05:55:36.979Z,4.95
2023-01-19T05:57:59.632Z,5.03
2023-01-19T06:00:22.415Z,5.45
2023-01-19T06:02:46.698Z,6.40
2023-01-19T06:05:09.719Z,5.15
2023-01-19T06:07:32.389Z,6.95
2023-01-19T06:09:55.201Z,6.80
2023-01-19T06:12:17.920Z,6.68
2023-01-19T06:14:41.003Z,6.03
2023-01-19T06:17:06.172Z,8.02
2023-01-19T06:19:28.797Z,7.13
2023-01-19T06:21:52.569Z,7.72
2023-01-19T06:24:16.271Z,6.70
2023-01-19T06:26:38.897Z,8.33
2023-01-19T06:29:01.664Z,7.63
2023-01-19T06:31:24.665Z,8.18
2023-01-19T06:33:47.813Z,7.00
2023-01-19T06:36:10.583Z,8.45
2023-01-19T06:38:33.375Z,8.30
2023-01-19T06:41:04.870Z,9.18
2023-01-19T06:43:29.368Z,10.93
2023-01-19T06:45:52.757Z,8.85
2023-01-19T06:48:15.958Z,10.23
2023-01-19T06:50:38.629Z,12.13
2023-01-19T06:53:01.894Z,12.15
2023-01-19T06:55:25.369Z,14.32
2023-01-19T06:57:58.997Z,10.95
2023-01-19T07:00:22.133Z,15.15
2023-01-19T07:02:44.926Z,12.47
2023-01-19T07:05:09.367Z,14.18
2023-01-19T07:07:32.579Z,13.48
2023-01-19T07:09:55.400Z,13.48
2023-01-19T07:12:18.375Z,14.45
2023-01-19T07:14:41.085Z,15.83
2023-01-19T07:17:03.732Z,13.68
2023-01-19T07:19:26.550Z,15.85
2023-01-19T07:21:49.703Z,13.95
2023-01-19T07:24:12.559Z,14.15
2023-01-19T07:26:37.920Z,15.17
2023-01-19T07:29:01.427Z,15.02
2023-01-19T07:31:24.811Z,15.05
2023-01-19T07:33:47.745Z,14.25
2023-01-19T07:36:10.772Z,15.98
2023-01-19T07:38:33.370Z,14.93
2023-01-19T07:41:03.390Z,16.45
2023-01-19T07:43:26.115Z,18.35
2023-01-19T07:45:48.873Z,19.17
2023-01-19T07:48:11.874Z,16.25
2023-01-19T07:50:34.763Z,18.30
2023-01-19T07:52:58.053Z,18.13
2023-01-19T07:55:21.624Z,18.90
2023-01-19T07:57:44.417Z,22.83
2023-01-19T08:00:08.939Z,19.77
2023-01-19T08:02:38.051Z,22.43
2023-01-19T08:05:03.191Z,22.80
2023-01-19T08:07:26.845Z,22.98
2023-01-19T08:09:49.685Z,22.58
2023-01-19T08:12:12.514Z,19.38
2023-01-19T08:14:37.362Z,24.70
2023-01-19T08:17:02.440Z,24.45
2023-01-19T08:19:26.635Z,25.67
2023-01-19T08:21:49.667Z,25.55
2023-01-19T08:24:19.730Z,24.85
2023-01-19T08:26:42.398Z,25.10
2023-01-19T08:29:06.040Z,25.20
2023-01-19T08:31:29.195Z,26.67
2023-01-19T08:33:52.372Z,23.67
2023-01-19T08:36:15.338Z,26.40
2023-01-19T08:38:40.917Z,27.10
2023-01-19T08:41:03.823Z,24.67
2023-01-19T08:43:26.598Z,25.85
2023-01-19T08:45:53.415Z,27.65
2023-01-19T08:48:18.589Z,26.08
2023-01-19T08:50:41.340Z,23.10
2023-01-19T08:53:06.991Z,23.60
2023-01-19T08:55:30.666Z,26.05
2023-01-19T08:57:54.676Z,30.33
2023-01-19T09:00:18.079Z,24.33
2023-01-19T09:02:40.810Z,25.73
2023-01-19T09:05:04.738Z,28.13
2023-01-19T09:07:30.569Z,28.75
2023-01-19T09:09:55.876Z,24.02
2023-01-19T09:12:21.998Z,23.38
2023-01-19T09:14:45.856Z,24.83
2023-01-19T09:17:08.504Z,22.98
2023-01-19T09:19:34.264Z,24.98
2023-01-19T09:22:02.270Z,25.95
2023-01-19T09:24:33.933Z,23.70
2023-01-19T09:26:56.982Z,23.37
2023-01-19T09:29:19.843Z,25.23
2023-01-19T09:31:43.879Z,24.75
2023-01-19T09:34:06.887Z,25.27
2023-01-19T09:36:30.281Z,25.55
2023-01-19T09:38:52.927Z,24.93
2023-01-19T09:41:26.278Z,24.75
2023-01-19T09:43:58.054Z,22.52
2023-01-19T09:46:38.862Z,24.48
2023-01-19T09:49:06.829Z,26.33
2023-01-19T09:51:35.117Z,27.47
2023-01-19T09:54:00.556Z,28.77
2023-01-19T09:56:24.425Z,25.38
2023-01-19T09:58:49.435Z,33.22
2023-01-19T10:01:15.139Z,27.90
2023-01-19T10:03:41.967Z,26.70
2023-01-19T10:06:07.372Z,29.27
2023-01-19T10:08:55.939Z,27.55
2023-01-19T10:11:53.617Z,29.92
2023-01-19T10:14:34.295Z,32.30
2023-01-19T10:17:12.655Z,28.50
2023-01-19T10:19:46.628Z,27.95
2023-01-19T10:22:28.815Z,26.50
2023-01-19T10:24:59.069Z,28.48
2023-01-19T10:27:28.597Z,28.30
2023-01-19T10:29:51.552Z,29.40
2023-01-19T10:32:22.315Z,27.30
2023-01-19T10:34:47.716Z,31.95
2023-01-19T10:37:29.742Z,30.65
2023-01-19T10:39:55.646Z,29.60
2023-01-19T10:42:18.591Z,30.43
2023-01-19T10:44:41.904Z,29.90
2023-01-19T10:47:11.871Z,29.17
2023-01-19T10:49:44.724Z,29.10
2023-01-19T10:52:19.961Z,29.50
2023-01-19T10:54:43.820Z,26.40
2023-01-19T10:57:10.166Z,30.02
2023-01-19T10:59:52.463Z,30.65
2023-01-19T11:02:17.794Z,29.63
2023-01-19T11:04:42.184Z,30.45
2023-01-19T11:07:26.702Z,29.63
2023-01-19T11:09:50.633Z,29.55
2023-01-19T11:12:22.966Z,29.42
2023-01-19T11:14:47.756Z,33.38
2023-01-19T11:17:20.459Z,30.98
2023-01-19T11:19:43.370Z,28.33
2023-01-19T11:22:21.881Z,28.08
2023-01-19T11:24:44.815Z,32.17
2023-01-19T11:27:07.765Z,30.77
2023-01-19T11:29:31.658Z,28.73
2023-01-19T11:31:57.662Z,28.73
2023-01-19T11:34:33.460Z,29.75
2023-01-19T11:37:27.266Z,31.45
2023-01-19T11:39:56.329Z,29.80
2023-01-19T11:42:20.243Z,27.02
2023-01-19T11:44:59.226Z,30.63
2023-01-19T11:47:32.433Z,29.75
2023-01-19T11:50:05.159Z,30.77
2023-01-19T11:52:36.446Z,26.40
2023-01-19T11:55:08.092Z,28.92
2023-01-19T11:57:31.101Z,28.27
2023-01-19T11:59:54.699Z,29.05
2023-01-19T12:02:28.197Z,29.27
2023-01-19T12:04:54.543Z,26.20
2023-01-19T12:07:26.017Z,25.85
2023-01-19T12:09:56.604Z,25.23
2023-01-19T12:12:31.570Z,26.65
2023-01-19T12:15:08.252Z,27.63
2023-01-19T12:17:39.126Z,24.65
2023-01-19T12:20:20.765Z,27.70
2023-01-19T12:22:51.324Z,27.57
2023-01-19T12:25:43.229Z,29.67
2023-01-19T12:28:13.158Z,25.13
2023-01-19T12:30:37.163Z,27.25
2023-01-19T12:33:29.163Z,23.98
2023-01-19T12:36:04.085Z,25.07
2023-01-19T12:38:42.187Z,24.02
2023-01-19T12:41:38.206Z,23.40
2023-01-19T12:44:16.572Z,23.58
2023-01-19T12:46:46.450Z,27.17
2023-01-19T12:49:12.190Z,29.70
2023-01-19T12:51:35.289Z,25.77
2023-01-19T12:54:01.373Z,28.30
2023-01-19T12:56:31.331Z,27.92
2023-01-19T12:58:54.133Z,28.92
2023-01-19T13:01:21.580Z,26.27
2023-01-19T13:03:46.381Z,25.40
2023-01-19T13:06:09.156Z,25.35
2023-01-19T13:08:58.112Z,25.02
2023-01-19T13:11:23.737Z,27.52
2023-01-19T13:13:50.510Z,25.73
2023-01-19T13:16:19.368Z,24.60
2023-01-19T13:18:43.952Z,23.42
2023-01-19T13:21:08.829Z,25.50
2023-01-19T13:23:52.486Z,22.08
2023-01-19T13:26:17.687Z,25.60
2023-01-19T13:28:55.581Z,22.95
2023-01-19T13:31:19.422Z,23.17
2023-01-19T13:33:52.210Z,26.05
2023-01-19T13:36:33.603Z,25.05
2023-01-19T13:38:58.926Z,25.20
2023-01-19T13:41:27.519Z,23.40
2023-01-19T13:44:16.370Z,20.52
2023-01-19T13:46:42.252Z,22.15
2023-01-19T13:49:30.593Z,20.85
2023-01-19T13:52:23.782Z,20.23
2023-01-19T13:54:56.324Z,19.85
2023-01-19T13:57:29.309Z,21.42
2023-01-19T14:00:05.059Z,22.15
2023-01-19T14:02:34.568Z,18.38
2023-01-19T14:04:57.428Z,18.37
2023-01-19T14:07:26.584Z,19.27
2023-01-19T14:10:05.581Z,20.95
2023-01-19T14:12:28.987Z,18.10
2023-01-19T14:15:23.523Z,19.15
2023-01-19T14:18:12.095Z,18.92
2023-01-19T14:20:37.164Z,16.90
2023-01-19T14:23:00.655Z,20.23
2023-01-19T14:25:35.213Z,15.55
2023-01-19T14:28:36.130Z,17.52
2023-01-19T14:31:17.691Z,16.02
2023-01-19T14:33:46.981Z,17.10
2023-01-19T14:36:39.201Z,17.63
2023-01-19T14:39:03.330Z,17.70
2023-01-19T14:41:39.962Z,19.85
2023-01-19T14:44:09.123Z,18.42
2023-01-19T14:46:31.957Z,17.50
2023-01-19T14:49:01.838Z,19.70
2023-01-19T14:51:26.659Z,19.85
2023-01-19T14:53:58.747Z,18.83
2023-01-19T14:56:30.553Z,20.38
2023-01-19T14:58:53.381Z,21.17
2023-01-19T15:01:16.222Z,20.15
2023-01-19T15:03:44.715Z,19.88
2023-01-19T15:06:13.742Z,20.27
2023-01-19T15:08:38.937Z,20.65
2023-01-19T15:11:08.924Z,18.97
2023-01-19T15:13:31.622Z,22.63
2023-01-19T15:15:54.179Z,22.05
2023-01-19T15:18:23.634Z,21.20
2023-01-19T15:20:46.742Z,21.67
2023-01-19T15:23:12.987Z,24.03
2023-01-19T15:25:35.623Z,23.92
2023-01-19T15:27:59.461Z,29.42
2023-01-19T15:30:25.244Z,25.75
2023-01-19T15:32:47.977Z,26.27
2023-01-19T15:35:18.921Z,23.20
2023-01-19T15:37:41.764Z,27.25
2023-01-19T15:40:05.101Z,28.17
2023-01-19T15:42:27.880Z,27.65
2023-01-19T15:44:50.410Z,26.25
2023-01-19T15:47:13.043Z,28.93
2023-01-19T15:49:35.883Z,30.75
2023-01-19T15:51:58.465Z,27.77
2023-01-19T15:54:21.049Z,29.15
2023-01-19T15:56:43.770Z,27.75
2023-01-19T15:59:06.760Z,30.33
2023-01-19T16:01:33.822Z,26.27
2023-01-19T16:04:02.598Z,30.63
2023-01-19T16:06:25.304Z,33.70
2023-01-19T16:08:48.011Z,33.95
2023-01-19T16:11:15.697Z,32.00
2023-01-19T16:13:39.225Z,34.33
2023-01-19T16:16:06.357Z,33.72
2023-01-19T16:18:29.045Z,30.75
2023-01-19T16:20:51.848Z,33.45
2023-01-19T16:23:15.479Z,31.27
2023-01-19T16:25:38.343Z,32.65
2023-01-19T16:28:01.152Z,32.22
2023-01-19T16:30:23.854Z,30.92
2023-01-19T16:32:46.981Z,31.85
2023-01-19T16:35:10.222Z,29.47
2023-01-19T16:37:33.088Z,29.98
2023-01-19T16:39:56.551Z,28.70
2023-01-19T16:42:19.461Z,27.63
2023-01-19T16:44:42.640Z,27.65
2023-01-19T16:47:05.245Z,29.03
2023-01-19T16:49:28.588Z,29.00
2023-01-19T16:51:53.409Z,30.17
2023-01-19T16:54:26.069Z,28.70
2023-01-19T16:56:49.468Z,28.95
2023-01-19T16:59:14.047Z,27.70
2023-01-19T17:01:38.070Z,28.45
2023-01-19T17:04:00.972Z,26.40
2023-01-19T17:06:24.245Z,31.42
2023-01-19T17:08:47.358Z,27.83
2023-01-19T17:11:21.533Z,27.33
2023-01-19T17:13:44.283Z,27.10
2023-01-19T17:16:07.384Z,25.75
2023-01-19T17:18:33.445Z,28.30
2023-01-19T17:21:02.423Z,28.90
2023-01-19T17:23:25.051Z,30.57
2023-01-19T17:25:55.282Z,29.52
2023-01-19T17:28:18.225Z,29.70
2023-01-19T17:30:41.159Z,28.90
2023-01-19T17:33:03.924Z,27.73
2023-01-19T17:35:26.862Z,30.47
2023-01-19T17:37:54.215Z,31.35
2023-01-19T17:40:17.067Z,27.98
2023-01-19T17:42:42.861Z,26.38
2023-01-19T17:45:06.057Z,26.23
2023-01-19T17:47:28.981Z,30.83
2023-01-19T17:49:51.813Z,27.27
2023-01-19T17:52:17.904Z,24.48
2023-01-19T17:54:43.842Z,28.58
2023-01-19T17:57:06.799Z,25.90
2023-01-19T17:59:29.748Z,25.87
2023-01-19T18:01:53.433Z,24.13
2023-01-19T18:04:16.343Z,26.98
2023-01-19T18:06:39.224Z,24.52
2023-01-19T18:09:02.115Z,26.02
2023-01-19T18:11:26.369Z,27.97
2023-01-19T18:13:51.702Z,27.30
2023-01-19T18:16:23.895Z,28.83
2023-01-19T18:18:50.240Z,26.60
2023-01-19T18:21:14.747Z,24.63
2023-01-19T18:23:37.879Z,22.90
2023-01-19T18:26:02.128Z,23.38
2023-01-19T18:28:25.241Z,23.40
2023-01-19T18:30:48.251Z,22.92
2023-01-19T18:33:11.227Z,24.38
2023-01-19T18:35:34.202Z,25.37
2023-01-19T18:37:58.601Z,20.45
2023-01-19T18:40:21.334Z,23.60
2023-01-19T18:42:45.685Z,24.20
2023-01-19T18:45:09.370Z,22.55
2023-01-19T18:47:33.110Z,28.23
2023-01-19T18:50:04.225Z,26.33
2023-01-19T18:52:27.419Z,24.48
2023-01-19T18:54:49.993Z,25.15
2023-01-19T18:57:12.888Z,27.05
2023-01-19T18:59:36.823Z,28.13
2023-01-19T19:02:01.536Z,24.23
2023-01-19T19:04:24.395Z,25.50
2023-01-19T19:06:47.446Z,25.15
2023-01-19T19:09:11.117Z,21.23
2023-01-19T19:11:34.503Z,22.03
2023-01-19T19:14:02.509Z,25.30
2023-01-19T19:16:25.516Z,21.88
2023-01-19T19:18:52.167Z,25.13
2023-01-19T19:21:16.288Z,23.55
2023-01-19T19:23:39.029Z,23.57
2023-01-19T19:26:07.576Z,23.35
2023-01-19T19:28:31.236Z,22.63
2023-01-19T19:31:05.801Z,23.35
2023-01-19T19:33:29.290Z,23.20
2023-01-19T19:35:56.844Z,24.17
2023-01-19T19:38:20.832Z,24.90
2023-01-19T19:40:43.717Z,25.33
2023-01-19T19:43:06.761Z,22.73
2023-01-19T19:45:29.703Z,27.38
2023-01-19T19:47:52.902Z,24.43
2023-01-19T19:50:16.149Z,21.30
2023-01-19T19:52:42.971Z,25.23
2023-01-19T19:55:07.900Z,22.38
2023-01-19T19:57:30.772Z,22.25
2023-01-19T19:59:53.688Z,18.67
2023-01-19T20:02:16.678Z,20.65
2023-01-19T20:04:39.822Z,20.95
2023-01-19T20:07:02.681Z,23.33
2023-01-19T20:09:25.985Z,22.73
2023-01-19T20:11:49.230Z,22.97
2023-01-19T20:14:13.091Z,22.83
2023-01-19T20:16:36.454Z,21.50
2023-01-19T20:18:59.297Z,20.88
2023-01-19T20:21:26.186Z,19.15
2023-01-19T20:23:50.723Z,21.27
2023-01-19T20:26:15.913Z,22.58
2023-01-19T20:28:39.241Z,22.48
2023-01-19T20:31:32.710Z,21.63
2023-01-19T20:33:58.951Z,22.20
2023-01-19T20:36:24.365Z,19.27
2023-01-19T20:38:47.754Z,19.50
2023-01-19T20:41:12.502Z,18.10
2023-01-19T20:43:35.877Z,19.60
2023-01-19T20:45:58.917Z,18.85
2023-01-19T20:48:21.933Z,18.57
2023-01-19T20:50:44.720Z,21.10
2023-01-19T20:53:07.544Z,20.27
2023-01-19T20:55:30.402Z,19.70
2023-01-19T20:57:53.295Z,22.98
2023-01-19T21:00:16.259Z,19.80
2023-01-19T21:02:39.076Z,21.35
2023-01-19T21:05:01.804Z,21.02
2023-01-19T21:07:24.904Z,19.48
2023-01-19T21:09:48.036Z,20.10
2023-01-19T21:12:11.246Z,22.70
2023-01-19T21:14:33.886Z,19.38
2023-01-19T21:16:59.657Z,21.42
2023-01-19T21:19:23.532Z,20.25
2023-01-19T21:21:46.326Z,18.95
2023-01-19T21:24:10.308Z,19.67
2023-01-19T21:26:33.764Z,18.48
2023-01-19T21:29:02.004Z,20.08
2023-01-19T21:31:27.906Z,18.63
2023-01-19T21:33:53.568Z,17.60
2023-01-19T21:36:16.186Z,18.10
2023-01-19T21:38:39.282Z,17.33
2023-01-19T21:41:09.809Z,17.35
2023-01-19T21:43:32.619Z,16.90
2023-01-19T21:45:55.301Z,16.83
2023-01-19T21:48:17.942Z,16.77
2023-01-19T21:50:40.769Z,15.90
2023-01-19T21:53:03.661Z,15.25
2023-01-19T21:55:26.475Z,18.85
2023-01-19T21:57:52.202Z,16.58
2023-01-19T22:00:15.106Z,17.60
2023-01-19T22:02:39.125Z,16.25
2023-01-19T22:05:02.481Z,15.77
2023-01-19T22:07:25.258Z,15.45
2023-01-19T22:09:48.311Z,16.70
2023-01-19T22:12:11.101Z,16.40
2023-01-19T22:14:33.715Z,15.45
2023-01-19T22:16:59.304Z,18.73
2023-01-19T22:19:25.784Z,17.08
2023-01-19T22:21:51.727Z,17.15
2023-01-19T22:24:14.348Z,16.93
2023-01-19T22:26:37.723Z,17.90
2023-01-19T22:29:01.868Z,15.88
2023-01-19T22:31:25.968Z,15.68
2023-01-19T22:33:51.707Z,15.40
2023-01-19T22:36:20.716Z,16.13
2023-01-19T22:38:44.781Z,17.83
2023-01-19T22:41:28.750Z,18.15
2023-01-19T22:43:54.294Z,17.70
2023-01-19T22:46:21.145Z,19.83
2023-01-19T22:48:44.008Z,19.37
2023-01-19T22:51:06.681Z,18.92
2023-01-19T22:53:31.675Z,19.60
2023-01-19T22:55:54.271Z,17.27
2023-01-19T22:58:17.057Z,18.70
2023-01-19T23:00:39.681Z,21.13
2023-01-19T23:03:02.322Z,19.95
2023-01-19T23:05:24.920Z,21.60
2023-01-19T23:07:47.455Z,20.80
2023-01-19T23:10:10.756Z,22.05
2023-01-19T23:12:33.529Z,19.53
2023-01-19T23:14:56.152Z,20.58
2023-01-19T23:17:18.778Z,18.35
2023-01-19T23:19:41.404Z,22.10
2023-01-19T23:22:04.201Z,20.95
2023-01-19T23:24:26.749Z,20.43
2023-01-19T23:26:52.243Z,19.30
2023-01-19T23:29:15.665Z,21.33
2023-01-19T23:31:42.414Z,18.88
2023-01-19T23:34:08.049Z,19.08
2023-01-19T23:36:33.230Z,19.50
2023-01-19T23:38:58.185Z,17.75
2023-01-19T23:41:22.547Z,20.88
2023-01-19T23:43:45.547Z,17.63
2023-01-19T23:46:09.901Z,19.98
2023-01-19T23:48:34.169Z,21.93
2023-01-19T23:50:56.919Z,20.73
2023-01-19T23:53:20.609Z,18.42
2023-01-19T23:55:43.174Z,19.42
2023-01-19T23:58:05.844Z,17.45
